createdAt,value
2022-10-24T00:00:35.533Z,100540.19
2022-10-24T00:03:03.469Z,100541.09
2022-10-24T00:05:31.324Z,100553.22
2022-10-24T00:08:00.629Z,100549.75
2022-10-24T00:10:28.515Z,100544.31
2022-10-24T00:12:56.374Z,100545.53
2022-10-24T00:15:24.423Z,100546.31
2022-10-24T00:17:52.317Z,100543.00
2022-10-24T00:20:20.315Z,100540.63
2022-10-24T00:22:48.138Z,100542.06
2022-10-24T00:25:17.429Z,100524.47
2022-10-24T00:27:45.325Z,100516.53
2022-10-24T00:30:13.889Z,100500.41
2022-10-24T00:32:41.797Z,100478.88
2022-10-24T00:35:11.688Z,100438.50
2022-10-24T00:37:39.571Z,100448.44
2022-10-24T00:40:10.306Z,100462.84
2022-10-24T00:42:39.547Z,100464.34
2022-10-24T00:45:41.642Z,100468.50
2022-10-24T00:48:16.539Z,100468.13
2022-10-24T00:50:44.681Z,100487.00
2022-10-24T00:53:12.767Z,100501.09
2022-10-24T00:55:40.656Z,100488.03
2022-10-24T00:58:10.127Z,100487.00
2022-10-24T01:00:38.070Z,100467.66
2022-10-24T01:03:05.975Z,100480.06
2022-10-24T01:05:38.684Z,100454.72
2022-10-24T01:08:11.642Z,100459.53
2022-10-24T01:10:40.250Z,100451.41
2022-10-24T01:13:18.741Z,100458.47
2022-10-24T01:15:50.491Z,100444.91
2022-10-24T01:18:23.685Z,100431.97
2022-10-24T01:21:05.905Z,100439.81
2022-10-24T01:24:04.265Z,100446.09
2022-10-24T01:26:57.047Z,100443.53
2022-10-24T01:29:49.651Z,100438.47
2022-10-24T01:32:24.492Z,100448.34
2022-10-24T01:35:00.325Z,100456.34
2022-10-24T01:37:31.988Z,100495.00
2022-10-24T01:40:03.598Z,100502.31
2022-10-24T01:42:33.622Z,100482.63
2022-10-24T01:45:03.199Z,100483.69
2022-10-24T01:47:34.772Z,100481.13
2022-10-24T01:50:06.578Z,100466.66
2022-10-24T01:52:37.615Z,100479.75
2022-10-24T01:55:06.271Z,100477.34
2022-10-24T01:57:34.955Z,100482.63
2022-10-24T02:00:08.443Z,100481.81
2022-10-24T02:02:41.446Z,100464.34
2022-10-24T02:05:12.871Z,100465.25
2022-10-24T02:07:42.443Z,100466.25
2022-10-24T02:10:13.716Z,100453.19
2022-10-24T02:12:44.744Z,100460.22
2022-10-24T02:15:20.552Z,100452.34
2022-10-24T02:17:48.399Z,100441.16
2022-10-24T02:20:16.755Z,100436.53
2022-10-24T02:22:49.112Z,100435.56
2022-10-24T02:25:20.284Z,100434.50
2022-10-24T02:27:52.808Z,100431.34
2022-10-24T02:30:23.472Z,100432.16
2022-10-24T02:32:53.076Z,100438.22
2022-10-24T02:35:25.645Z,100431.50
2022-10-24T02:37:55.420Z,100426.94
2022-10-24T02:40:24.085Z,100422.63
2022-10-24T02:42:54.819Z,100420.91
2022-10-24T02:45:24.478Z,100420.16
2022-10-24T02:47:55.574Z,100400.69
2022-10-24T02:50:23.547Z,100409.44
2022-10-24T02:52:51.387Z,100412.13
2022-10-24T02:55:19.270Z,100401.94
2022-10-24T02:57:47.204Z,100409.09
2022-10-24T03:00:18.586Z,100401.22
2022-10-24T03:02:48.039Z,100393.38
2022-10-24T03:05:16.116Z,100377.47
2022-10-24T03:07:43.998Z,100383.50
2022-10-24T03:10:11.861Z,100384.31
2022-10-24T03:12:39.734Z,100370.03
2022-10-24T03:15:08.781Z,100380.38
2022-10-24T03:17:36.686Z,100385.50
2022-10-24T03:20:06.968Z,100378.50
2022-10-24T03:22:34.834Z,100393.19
2022-10-24T03:25:03.698Z,100386.41
2022-10-24T03:27:31.588Z,100393.59
2022-10-24T03:30:05.950Z,100392.84
2022-10-24T03:32:34.529Z,100386.84
2022-10-24T03:35:02.617Z,100387.91
2022-10-24T03:37:32.237Z,100384.25
2022-10-24T03:40:00.093Z,100386.66
2022-10-24T03:42:27.950Z,100380.84
2022-10-24T03:44:55.793Z,100382.59
2022-10-24T03:47:23.995Z,100383.44
2022-10-24T03:49:51.856Z,100371.97
2022-10-24T03:52:20.041Z,100373.13
2022-10-24T03:54:49.443Z,100368.75
2022-10-24T03:57:17.327Z,100362.69
2022-10-24T03:59:45.304Z,100370.84
2022-10-24T04:02:14.007Z,100368.28
2022-10-24T04:04:42.265Z,100366.66
2022-10-24T04:07:10.134Z,100358.00
2022-10-24T04:09:37.984Z,100361.38
2022-10-24T04:12:07.435Z,100358.25
2022-10-24T04:14:35.279Z,100352.78
2022-10-24T04:17:03.277Z,100356.34
2022-10-24T04:19:31.145Z,100354.78
2022-10-24T04:21:59.023Z,100351.44
2022-10-24T04:24:27.168Z,100341.94
2022-10-24T04:26:55.053Z,100341.78
2022-10-24T04:29:24.375Z,100340.03
2022-10-24T04:31:52.242Z,100350.66
2022-10-24T04:34:20.157Z,100348.06
2022-10-24T04:36:48.028Z,100345.44
2022-10-24T04:39:16.169Z,100342.28
2022-10-24T04:41:44.025Z,100338.13
2022-10-24T04:44:11.974Z,100339.75
2022-10-24T04:46:41.215Z,100333.81
2022-10-24T04:49:09.978Z,100333.59
2022-10-24T04:51:37.768Z,100341.44
2022-10-24T04:54:06.027Z,100339.16
2022-10-24T04:56:33.975Z,100333.84
2022-10-24T04:59:02.339Z,100335.50
2022-10-24T05:01:30.451Z,100338.34
2022-10-24T05:03:59.780Z,100332.91
2022-10-24T05:06:27.827Z,100333.03
2022-10-24T05:08:55.805Z,100328.72
2022-10-24T05:11:23.762Z,100323.63
2022-10-24T05:13:51.705Z,100327.28
2022-10-24T05:16:19.658Z,100326.63
2022-10-24T05:18:47.511Z,100344.13
2022-10-24T05:21:17.282Z,100332.09
2022-10-24T05:23:45.205Z,100330.31
2022-10-24T05:26:13.226Z,100334.69
2022-10-24T05:28:41.190Z,100321.78
2022-10-24T05:31:09.202Z,100325.13
2022-10-24T05:33:37.128Z,100323.53
2022-10-24T05:36:06.329Z,100325.31
2022-10-24T05:38:35.649Z,100331.38
2022-10-24T05:41:03.720Z,100340.94
2022-10-24T05:43:31.675Z,100343.84
2022-10-24T05:45:59.635Z,100340.13
2022-10-24T05:48:27.745Z,100332.28
2022-10-24T05:50:57.535Z,100322.94
2022-10-24T05:53:25.801Z,100318.63
2022-10-24T05:55:55.175Z,100317.00
2022-10-24T05:58:23.112Z,100321.22
2022-10-24T06:00:54.022Z,100323.78
2022-10-24T06:03:22.543Z,100320.03
2022-10-24T06:05:50.520Z,100323.78
2022-10-24T06:08:19.091Z,100326.44
2022-10-24T06:10:48.470Z,100310.09
2022-10-24T06:13:18.329Z,100317.72
2022-10-24T06:15:46.380Z,100316.09
2022-10-24T06:18:14.304Z,100322.88
2022-10-24T06:20:42.211Z,100318.72
2022-10-24T06:23:10.084Z,100317.91
2022-10-24T06:25:38.015Z,100323.97
2022-10-24T06:30:37.780Z,100333.91
2022-10-24T06:33:05.613Z,100351.38
2022-10-24T06:35:33.594Z,100350.34
2022-10-24T06:38:01.630Z,100356.88
2022-10-24T06:40:29.570Z,100356.78
2022-10-24T06:42:57.977Z,100350.34
2022-10-24T06:45:25.962Z,100352.72
2022-10-24T06:47:55.700Z,100335.00
2022-10-24T06:50:24.095Z,100347.41
2022-10-24T06:52:51.976Z,100348.00
2022-10-24T06:55:19.892Z,100362.81
2022-10-24T06:57:48.010Z,100360.66
2022-10-24T07:00:17.584Z,100362.06
2022-10-24T07:02:45.878Z,100364.81
2022-10-24T07:05:15.402Z,100355.81
2022-10-24T07:07:44.589Z,100370.50
2022-10-24T07:10:14.235Z,100376.69
2022-10-24T07:12:43.361Z,100378.31
2022-10-24T07:15:12.270Z,100377.41
2022-10-24T07:17:40.990Z,100383.16
2022-10-24T07:20:09.814Z,100384.09
2022-10-24T07:22:39.017Z,100383.91
2022-10-24T07:25:08.179Z,100386.13
2022-10-24T07:27:36.299Z,100391.59
2022-10-24T07:30:05.919Z,100376.66
2022-10-24T07:32:34.060Z,100381.81
2022-10-24T07:35:02.044Z,100387.41
2022-10-24T07:37:29.928Z,100389.84
2022-10-24T07:39:59.170Z,100392.38
2022-10-24T07:42:27.055Z,100398.34
2022-10-24T07:44:55.000Z,100403.97
2022-10-24T07:47:22.865Z,100401.06
2022-10-24T07:49:50.783Z,100394.69
2022-10-24T07:52:18.665Z,100395.22
2022-10-24T07:54:46.495Z,100401.09
2022-10-24T07:57:15.742Z,100396.75
2022-10-24T07:59:43.627Z,100405.56
2022-10-24T08:02:12.761Z,100404.72
2022-10-24T08:04:40.947Z,100405.25
2022-10-24T08:07:13.311Z,100399.53
2022-10-24T08:09:43.010Z,100410.00
2022-10-24T08:12:11.401Z,100405.75
2022-10-24T08:14:41.871Z,100412.41
2022-10-24T08:17:09.768Z,100413.34
2022-10-24T08:19:43.731Z,100419.19
2022-10-24T08:22:12.363Z,100409.81
2022-10-24T08:24:40.180Z,100411.84
2022-10-24T08:27:07.994Z,100415.25
2022-10-24T08:29:36.245Z,100407.97
2022-10-24T08:32:06.776Z,100408.31
2022-10-24T08:34:34.972Z,100405.72
2022-10-24T08:37:03.302Z,100413.50
2022-10-24T08:39:31.189Z,100407.88
2022-10-24T08:42:01.571Z,100412.91
2022-10-24T08:44:31.871Z,100409.31
2022-10-24T08:47:03.445Z,100412.81
2022-10-24T08:49:37.167Z,100415.22
2022-10-24T08:52:12.452Z,100407.06
2022-10-24T08:54:42.592Z,100394.03
2022-10-24T08:57:19.183Z,100393.22
2022-10-24T08:59:47.158Z,100395.38
2022-10-24T09:02:19.905Z,100395.81
2022-10-24T09:04:50.559Z,100386.28
2022-10-24T09:07:20.540Z,100381.47
2022-10-24T09:09:51.145Z,100375.97
2022-10-24T09:12:20.344Z,100381.59
2022-10-24T09:14:53.149Z,100383.13
2022-10-24T09:17:21.746Z,100378.75
2022-10-24T09:19:54.377Z,100379.69
2022-10-24T09:22:22.775Z,100374.34
2022-10-24T09:24:53.033Z,100370.97
2022-10-24T09:27:23.962Z,100378.25
2022-10-24T09:29:52.556Z,100378.00
2022-10-24T09:32:22.703Z,100382.34
2022-10-24T09:34:52.097Z,100384.28
2022-10-24T09:37:42.831Z,100388.06
2022-10-24T09:40:19.986Z,100392.03
2022-10-24T09:42:55.398Z,100392.06
2022-10-24T09:45:36.855Z,100390.19
2022-10-24T09:48:07.520Z,100386.97
2022-10-24T09:50:37.024Z,100383.06
2022-10-24T09:53:05.891Z,100384.25
2022-10-24T09:55:34.350Z,100386.78
2022-10-24T09:58:05.372Z,100392.56
2022-10-24T10:00:35.535Z,100392.66
2022-10-24T10:03:09.784Z,100397.56
2022-10-24T10:05:47.176Z,100384.34
2022-10-24T10:08:20.557Z,100387.03
2022-10-24T10:11:00.171Z,100391.13
2022-10-24T10:13:29.210Z,100389.84
2022-10-24T10:15:58.293Z,100381.59
2022-10-24T10:18:33.216Z,100382.19
2022-10-24T10:21:08.812Z,100378.38
2022-10-24T10:23:38.640Z,100379.59
2022-10-24T10:26:15.410Z,100379.78
2022-10-24T10:28:49.198Z,100375.47
2022-10-24T10:31:18.763Z,100377.34
2022-10-24T10:33:54.445Z,100372.19
2022-10-24T10:36:26.415Z,100377.03
2022-10-24T10:39:02.385Z,100380.72
2022-10-24T10:41:37.518Z,100367.28
2022-10-24T10:44:31.139Z,100371.22
2022-10-24T10:47:05.736Z,100366.50
2022-10-24T10:49:37.582Z,100372.06
2022-10-24T10:52:08.876Z,100361.31
2022-10-24T10:54:52.249Z,100365.25
2022-10-24T10:57:26.476Z,100355.66
2022-10-24T10:59:59.905Z,100362.00
2022-10-24T11:02:42.085Z,100362.97
2022-10-24T11:05:32.465Z,100359.81
2022-10-24T11:08:10.480Z,100371.88
2022-10-24T11:10:42.078Z,100370.06
2022-10-24T11:13:15.770Z,100365.31
2022-10-24T11:15:45.691Z,100353.38
2022-10-24T11:18:17.517Z,100355.28
2022-10-24T11:20:48.278Z,100357.41
2022-10-24T11:23:21.125Z,100364.03
2022-10-24T11:25:52.486Z,100367.22
2022-10-24T11:28:24.527Z,100365.16
2022-10-24T11:30:55.517Z,100372.84
2022-10-24T11:33:25.887Z,100366.03
2022-10-24T11:36:03.957Z,100365.09
2022-10-24T11:38:34.378Z,100364.22
2022-10-24T11:41:16.914Z,100374.84
2022-10-24T11:43:47.084Z,100362.56
2022-10-24T11:46:17.690Z,100359.75
2022-10-24T11:51:23.466Z,100381.16
2022-10-24T11:53:56.475Z,100372.66
2022-10-24T11:56:30.948Z,100368.53
2022-10-24T11:59:01.214Z,100353.53
2022-10-24T12:01:58.766Z,100369.97
2022-10-24T12:05:11.554Z,100364.34
2022-10-24T12:08:14.607Z,100364.66
2022-10-24T12:10:58.988Z,100367.59
2022-10-24T12:13:37.818Z,100371.88
2022-10-24T12:16:12.264Z,100375.13
2022-10-24T12:18:42.307Z,100391.69
2022-10-24T12:21:13.173Z,100378.72
2022-10-24T12:23:41.596Z,100366.78
2022-10-24T12:26:19.843Z,100375.22
2022-10-24T12:28:55.419Z,100387.56
2022-10-24T12:31:27.895Z,100380.16
2022-10-24T12:34:14.351Z,100384.47
2022-10-24T12:37:11.789Z,100384.25
2022-10-24T12:39:44.396Z,100376.41
2022-10-24T12:42:18.510Z,100385.94
2022-10-24T12:44:50.415Z,100387.09
2022-10-24T12:47:34.447Z,100391.66
2022-10-24T12:50:35.412Z,100398.59
2022-10-24T12:53:06.524Z,100389.56
2022-10-24T12:56:22.548Z,100386.94
2022-10-24T12:59:00.159Z,100390.03
2022-10-24T13:01:33.211Z,100392.75
2022-10-24T13:04:41.342Z,100381.88
2022-10-24T13:07:29.335Z,100391.66
2022-10-24T13:10:12.129Z,100381.34
2022-10-24T13:13:17.479Z,100395.44
2022-10-24T13:15:49.988Z,100394.97
2022-10-24T13:18:27.654Z,100392.56
2022-10-24T13:21:14.143Z,100403.94
2022-10-24T13:23:44.423Z,100391.56
2022-10-24T13:26:37.603Z,100393.94
2022-10-24T13:29:06.477Z,100394.53
2022-10-24T13:31:50.193Z,100391.06
2022-10-24T13:34:26.658Z,100393.09
2022-10-24T13:37:01.298Z,100395.16
2022-10-24T13:39:33.142Z,100393.81
2022-10-24T13:42:06.135Z,100394.38
2022-10-24T13:44:41.267Z,100394.00
2022-10-24T13:47:16.241Z,100394.72
2022-10-24T13:49:50.705Z,100395.34
2022-10-24T13:52:21.958Z,100395.19
2022-10-24T13:54:56.301Z,100392.25
2022-10-24T13:57:31.278Z,100383.03
2022-10-24T14:00:00.922Z,100383.47
2022-10-24T14:02:33.538Z,100385.69
2022-10-24T14:05:02.549Z,100381.13
2022-10-24T14:07:31.504Z,100376.88
2022-10-24T14:10:03.147Z,100378.34
2022-10-24T14:12:33.756Z,100369.03
2022-10-24T14:15:03.650Z,100367.81
2022-10-24T14:17:34.472Z,100370.00
2022-10-24T14:20:04.585Z,100368.81
2022-10-24T14:22:39.701Z,100363.88
2022-10-24T14:25:08.512Z,100373.41
2022-10-24T14:27:36.706Z,100380.97
2022-10-24T14:30:06.550Z,100376.94
2022-10-24T14:32:35.843Z,100372.56
2022-10-24T14:35:03.941Z,100370.22
2022-10-24T14:37:34.044Z,100393.13
2022-10-24T14:40:02.151Z,100377.59
2022-10-24T14:42:30.481Z,100370.09
2022-10-24T14:44:58.723Z,100346.25
2022-10-24T14:47:31.809Z,100346.91
2022-10-24T14:50:06.633Z,100348.38
2022-10-24T14:52:36.982Z,100345.28
2022-10-24T14:55:06.984Z,100345.34
2022-10-24T14:57:36.259Z,100352.88
2022-10-24T15:00:08.380Z,100349.34
2022-10-24T15:02:42.055Z,100352.22
2022-10-24T15:05:33.918Z,100358.09
2022-10-24T15:08:26.294Z,100361.25
2022-10-24T15:11:18.196Z,100366.84
2022-10-24T15:14:05.207Z,100367.97
2022-10-24T15:16:37.424Z,100375.50
2022-10-24T15:19:07.030Z,100373.22
2022-10-24T15:21:39.677Z,100372.44
2022-10-24T15:24:08.466Z,100384.69
2022-10-24T15:26:39.514Z,100373.75
2022-10-24T15:29:16.776Z,100366.13
2022-10-24T15:31:46.491Z,100371.16
2022-10-24T15:34:15.705Z,100387.78
2022-10-24T15:36:46.116Z,100373.63
2022-10-24T15:39:15.489Z,100379.31
2022-10-24T15:41:43.469Z,100375.94
2022-10-24T15:44:16.438Z,100371.56
2022-10-24T15:46:44.517Z,100372.41
2022-10-24T15:49:12.533Z,100376.69
2022-10-24T15:51:45.895Z,100376.47
2022-10-24T15:54:19.636Z,100370.34
2022-10-24T15:56:47.863Z,100379.78
2022-10-24T15:59:15.921Z,100376.63
2022-10-24T16:01:47.467Z,100385.38
2022-10-24T16:04:15.693Z,100389.22
2022-10-24T16:06:43.586Z,100384.09
2022-10-24T16:09:15.738Z,100388.59
2022-10-24T16:11:45.508Z,100390.78
2022-10-24T16:14:14.288Z,100397.66
2022-10-24T16:16:42.154Z,100392.06
2022-10-24T16:19:10.625Z,100396.03
2022-10-24T16:21:39.862Z,100405.19
2022-10-24T16:24:08.975Z,100402.56
2022-10-24T16:26:37.492Z,100400.50
2022-10-24T16:29:06.880Z,100404.16
2022-10-24T16:31:35.239Z,100400.16
2022-10-24T16:34:03.301Z,100402.72
2022-10-24T16:36:32.675Z,100407.44
2022-10-24T16:39:00.487Z,100410.78
2022-10-24T16:41:28.400Z,100416.00
2022-10-24T16:43:57.060Z,100419.47
2022-10-24T16:46:28.155Z,100417.69
2022-10-24T16:48:56.508Z,100420.84
2022-10-24T16:51:27.330Z,100422.19
2022-10-24T16:53:55.174Z,100415.25
2022-10-24T16:56:23.112Z,100422.78
2022-10-24T16:58:50.911Z,100429.44
2022-10-24T17:01:18.862Z,100426.41
2022-10-24T17:03:48.240Z,100428.34
2022-10-24T17:06:16.476Z,100436.75
2022-10-24T17:08:44.816Z,100426.41
2022-10-24T17:11:39.611Z,100444.00
2022-10-24T17:14:00.569Z,100440.28
2022-10-24T17:16:28.567Z,100447.38
2022-10-24T17:19:14.774Z,100439.63
2022-10-24T17:21:43.763Z,100445.06
2022-10-24T17:24:12.675Z,100458.97
2022-10-24T17:26:40.894Z,100455.19
2022-10-24T17:29:09.269Z,100457.81
2022-10-24T17:31:37.360Z,100458.91
2022-10-24T17:34:07.232Z,100452.88
2022-10-24T17:36:38.987Z,100461.06
2022-10-24T17:39:10.731Z,100460.00
2022-10-24T17:41:40.873Z,100454.06
2022-10-24T17:44:13.727Z,100460.31
2022-10-24T17:46:41.798Z,100459.72
2022-10-24T17:49:16.394Z,100461.47
2022-10-24T17:51:47.906Z,100460.00
2022-10-24T17:54:16.267Z,100452.69
2022-10-24T17:56:44.662Z,100455.69
2022-10-24T17:59:12.612Z,100451.06
2022-10-24T18:01:40.701Z,100450.66
2022-10-24T18:04:08.812Z,100450.28
2022-10-24T18:06:42.997Z,100459.50
2022-10-24T18:09:11.570Z,100464.50
2022-10-24T18:11:39.980Z,100465.81
2022-10-24T18:14:08.152Z,100469.75
2022-10-24T18:16:37.102Z,100472.44
2022-10-24T18:19:05.321Z,100470.28
2022-10-24T18:21:33.421Z,100471.16
2022-10-24T18:24:02.746Z,100471.16
2022-10-24T18:26:30.825Z,100478.00
2022-10-24T18:28:59.026Z,100471.94
2022-10-24T18:31:28.700Z,100467.00
2022-10-24T18:33:58.935Z,100471.28
2022-10-24T18:36:29.213Z,100473.72
2022-10-24T18:38:58.181Z,100472.84
2022-10-24T18:41:36.950Z,100474.50
2022-10-24T18:44:18.215Z,100478.78
2022-10-24T18:46:46.497Z,100477.13
2022-10-24T18:49:16.358Z,100478.94
2022-10-24T18:51:50.349Z,100478.31
2022-10-24T18:56:54.274Z,100478.66
2022-10-24T18:59:22.649Z,100483.47
2022-10-24T19:01:59.303Z,100482.56
2022-10-24T19:04:28.046Z,100490.41
2022-10-24T19:06:58.283Z,100483.53
2022-10-24T19:09:27.499Z,100484.59
2022-10-24T19:11:57.234Z,100486.53
2022-10-24T19:14:25.515Z,100485.59
2022-10-24T19:16:53.691Z,100480.16
2022-10-24T19:19:24.360Z,100480.91
2022-10-24T19:21:52.434Z,100492.13
2022-10-24T19:24:20.462Z,100490.41
2022-10-24T19:26:48.531Z,100484.47
2022-10-24T19:29:17.934Z,100485.66
2022-10-24T19:31:46.273Z,100487.22
2022-10-24T19:34:14.155Z,100489.13
2022-10-24T19:36:41.987Z,100490.41
2022-10-24T19:39:10.393Z,100493.09
2022-10-24T19:41:38.271Z,100493.09
2022-10-24T19:44:06.520Z,100501.50
2022-10-24T19:46:35.923Z,100498.03
2022-10-24T19:49:03.816Z,100487.63
2022-10-24T19:51:31.749Z,100489.84
2022-10-24T19:53:59.588Z,100495.84
2022-10-24T19:56:29.024Z,100496.41
2022-10-24T19:58:57.222Z,100506.44
2022-10-24T20:01:26.815Z,100490.84
2022-10-24T20:03:57.175Z,100502.56
2022-10-24T20:06:25.917Z,100500.16
2022-10-24T20:08:53.829Z,100500.72
2022-10-24T20:11:21.708Z,100491.69
2022-10-24T20:13:50.274Z,100496.06
2022-10-24T20:16:18.464Z,100496.91
2022-10-24T20:18:46.820Z,100495.28
2022-10-24T20:21:18.061Z,100493.00
2022-10-24T20:23:46.935Z,100500.94
2022-10-24T20:26:17.199Z,100510.63
2022-10-24T20:28:46.546Z,100511.06
2022-10-24T20:31:25.317Z,100508.50
2022-10-24T20:33:53.334Z,100525.97
2022-10-24T20:36:22.504Z,100524.16
2022-10-24T20:38:50.504Z,100526.97
2022-10-24T20:41:18.494Z,100523.84
2022-10-24T20:43:46.409Z,100525.34
2022-10-24T20:46:14.385Z,100522.88
2022-10-24T20:48:42.323Z,100526.47
2022-10-24T20:51:12.725Z,100532.47
2022-10-24T20:53:42.494Z,100526.47
2022-10-24T20:56:11.879Z,100531.97
2022-10-24T20:58:40.954Z,100531.75
2022-10-24T21:01:09.578Z,100542.78
2022-10-24T21:03:37.992Z,100551.59
2022-10-24T21:06:06.874Z,100540.44
2022-10-24T21:08:34.727Z,100545.41
2022-10-24T21:11:07.763Z,100553.19
2022-10-24T21:13:35.700Z,100552.38
2022-10-24T21:16:06.300Z,100556.47
2022-10-24T21:18:34.193Z,100553.91
2022-10-24T21:21:07.190Z,100559.94
2022-10-24T21:23:35.070Z,100567.44
2022-10-24T21:26:04.910Z,100567.81
2022-10-24T21:28:34.253Z,100574.28
2022-10-24T21:31:06.208Z,100577.91
2022-10-24T21:33:34.287Z,100585.03
2022-10-24T21:36:05.717Z,100591.56
2022-10-24T21:38:33.774Z,100595.41
2022-10-24T21:41:02.341Z,100603.44
2022-10-24T21:43:32.126Z,100611.22
2022-10-24T21:46:05.868Z,100612.94
2022-10-24T21:48:33.956Z,100612.19
2022-10-24T21:51:03.382Z,100615.56
2022-10-24T21:53:31.198Z,100618.53
2022-10-24T21:56:06.419Z,100615.56
2022-10-24T21:58:34.539Z,100615.50
2022-10-24T22:01:04.250Z,100627.94
2022-10-24T22:03:32.251Z,100610.56
2022-10-24T22:06:00.344Z,100621.94
2022-10-24T22:08:28.414Z,100626.34
2022-10-24T22:10:57.812Z,100622.34
2022-10-24T22:13:25.842Z,100633.41
2022-10-24T22:15:53.766Z,100634.13
2022-10-24T22:18:23.073Z,100639.16
2022-10-24T22:20:51.426Z,100640.03
2022-10-24T22:23:19.596Z,100647.00
2022-10-24T22:25:47.433Z,100645.25
2022-10-24T22:28:15.294Z,100647.31
2022-10-24T22:30:43.874Z,100647.13
2022-10-24T22:33:17.838Z,100649.75
2022-10-24T22:35:50.362Z,100655.88
2022-10-24T22:38:18.594Z,100655.22
2022-10-24T22:40:47.266Z,100666.66
2022-10-24T22:43:15.655Z,100663.84
2022-10-24T22:45:48.874Z,100666.66
2022-10-24T22:48:20.562Z,100666.69
2022-10-24T22:50:52.219Z,100671.75
2022-10-24T22:53:22.260Z,100674.94
2022-10-24T22:56:03.947Z,100679.25
2022-10-24T22:58:32.403Z,100677.41
2022-10-24T23:01:03.347Z,100689.22
2022-10-24T23:03:37.571Z,100688.97
2022-10-24T23:06:13.311Z,100681.16
2022-10-24T23:08:43.809Z,100672.03
2022-10-24T23:11:12.939Z,100674.63
2022-10-24T23:13:41.434Z,100664.09
2022-10-24T23:16:16.160Z,100672.78
2022-10-24T23:18:44.523Z,100663.84
2022-10-24T23:21:29.336Z,100668.22
2022-10-24T23:23:57.711Z,100673.97
2022-10-24T23:26:34.141Z,100666.16
2022-10-24T23:29:07.642Z,100668.09
2022-10-24T23:31:36.022Z,100664.56
2022-10-24T23:34:04.426Z,100666.50
2022-10-24T23:36:34.423Z,100662.66
2022-10-24T23:39:02.819Z,100669.28
2022-10-24T23:41:31.106Z,100671.03
2022-10-24T23:43:59.523Z,100666.56
2022-10-24T23:46:31.751Z,100675.56
2022-10-24T23:49:10.713Z,100675.56
2022-10-24T23:51:43.196Z,100677.91
2022-10-24T23:54:12.771Z,100679.72
2022-10-24T23:56:41.233Z,100680.78
2022-10-24T23:59:09.066Z,100684.13
